createdAt,value
2023-01-15T00:00:03.436Z,94644.25
2023-01-15T00:02:34.305Z,94649.44
2023-01-15T00:05:03.617Z,94636.66
2023-01-15T00:07:33.507Z,94638.44
2023-01-15T00:10:01.164Z,94634.59
2023-01-15T00:12:29.170Z,94629.75
2023-01-15T00:14:58.213Z,94629.22
2023-01-15T00:17:26.415Z,94620.97
2023-01-15T00:19:54.150Z,94614.50
2023-01-15T00:22:22.517Z,94612.78
2023-01-15T00:25:09.187Z,94605.13
2023-01-15T00:27:40.003Z,94609.38
2023-01-15T00:30:12.335Z,94610.00
2023-01-15T00:32:40.623Z,94602.25
2023-01-15T00:35:12.731Z,94607.16
2023-01-15T00:37:40.679Z,94604.19
2023-01-15T00:40:11.490Z,94591.66
2023-01-15T00:42:40.079Z,94592.94
2023-01-15T00:45:10.766Z,94590.00
2023-01-15T00:47:39.434Z,94589.16
2023-01-15T00:50:09.941Z,94593.59
2023-01-15T00:52:38.066Z,94589.47
2023-01-15T00:55:07.550Z,94576.84
2023-01-15T00:57:36.591Z,94568.19
2023-01-15T01:00:05.783Z,94562.47
2023-01-15T01:02:33.517Z,94562.41
2023-01-15T01:05:01.677Z,94557.84
2023-01-15T01:07:30.848Z,94550.41
2023-01-15T01:09:58.584Z,94551.03
2023-01-15T01:12:26.364Z,94553.66
2023-01-15T01:14:55.835Z,94545.88
2023-01-15T01:17:23.502Z,94556.31
2023-01-15T01:19:51.366Z,94547.50
2023-01-15T01:22:19.051Z,94548.81
2023-01-15T01:24:47.142Z,94550.63
2023-01-15T01:27:14.857Z,94546.84
2023-01-15T01:29:43.307Z,94550.97
2023-01-15T01:32:13.462Z,94536.72
2023-01-15T01:34:41.178Z,94543.25
2023-01-15T01:37:08.872Z,94550.81
2023-01-15T01:39:37.251Z,94557.25
2023-01-15T01:42:12.818Z,94544.84
2023-01-15T01:45:02.771Z,94537.19
2023-01-15T01:47:34.121Z,94528.22
2023-01-15T01:50:06.335Z,94526.25
2023-01-15T01:52:40.539Z,94533.19
2023-01-15T01:55:10.574Z,94524.47
2023-01-15T01:57:39.458Z,94522.63
2023-01-15T02:00:10.803Z,94519.19
2023-01-15T02:02:45.229Z,94521.94
2023-01-15T02:05:17.958Z,94518.75
2023-01-15T02:07:46.715Z,94515.75
2023-01-15T02:10:16.683Z,94518.00
2023-01-15T02:12:50.704Z,94513.03
2023-01-15T02:15:24.647Z,94521.66
2023-01-15T02:18:01.440Z,94526.50
2023-01-15T02:20:36.666Z,94519.28
2023-01-15T02:23:23.421Z,94508.56
2023-01-15T02:26:10.165Z,94507.78
2023-01-15T02:28:43.193Z,94513.78
2023-01-15T02:31:17.171Z,94507.09
2023-01-15T02:33:49.848Z,94499.66
2023-01-15T02:36:24.594Z,94480.25
2023-01-15T02:38:56.703Z,94472.78
2023-01-15T02:41:31.679Z,94459.53
2023-01-15T02:44:04.646Z,94463.75
2023-01-15T02:46:35.775Z,94454.06
2023-01-15T02:49:09.277Z,94445.53
2023-01-15T02:51:43.875Z,94451.66
2023-01-15T02:54:15.451Z,94437.28
2023-01-15T02:56:46.974Z,94432.41
2023-01-15T02:59:21.159Z,94432.59
2023-01-15T03:01:54.806Z,94409.56
2023-01-15T03:04:31.501Z,94414.34
2023-01-15T03:07:07.423Z,94426.34
2023-01-15T03:09:37.733Z,94431.81
2023-01-15T03:12:11.610Z,94431.47
2023-01-15T03:14:50.936Z,94427.34
2023-01-15T03:17:22.577Z,94427.34
2023-01-15T03:19:55.743Z,94421.69
2023-01-15T03:22:29.224Z,94408.69
2023-01-15T03:25:02.254Z,94411.94
2023-01-15T03:27:34.442Z,94415.16
2023-01-15T03:30:13.984Z,94406.44
2023-01-15T03:32:42.610Z,94419.19
2023-01-15T03:35:43.924Z,94414.72
2023-01-15T03:38:15.524Z,94424.50
2023-01-15T03:40:54.636Z,94417.97
2023-01-15T03:43:43.026Z,94416.00
2023-01-15T03:46:27.157Z,94407.53
2023-01-15T03:49:01.506Z,94406.94
2023-01-15T03:51:34.832Z,94408.34
2023-01-15T03:54:11.746Z,94403.81
2023-01-15T03:56:55.524Z,94402.81
2023-01-15T03:59:30.813Z,94401.41
2023-01-15T04:02:05.213Z,94398.53
2023-01-15T04:04:34.102Z,94399.81
2023-01-15T04:07:05.384Z,94396.97
2023-01-15T04:09:40.118Z,94390.50
2023-01-15T04:12:11.900Z,94387.44
2023-01-15T04:14:46.996Z,94382.81
2023-01-15T04:17:21.536Z,94388.88
2023-01-15T04:19:49.205Z,94391.66
2023-01-15T04:22:17.476Z,94392.47
2023-01-15T04:24:46.819Z,94394.91
2023-01-15T04:27:14.777Z,94397.06
2023-01-15T04:29:42.477Z,94385.66
2023-01-15T04:32:10.727Z,94392.19
2023-01-15T04:34:38.395Z,94391.38
2023-01-15T04:37:06.456Z,94388.88
2023-01-15T04:39:34.496Z,94392.88
2023-01-15T04:42:21.513Z,94388.63
2023-01-15T04:44:49.182Z,94391.59
2023-01-15T04:47:17.020Z,94394.38
2023-01-15T04:49:44.683Z,94385.47
2023-01-15T04:52:12.707Z,94387.34
2023-01-15T04:54:40.373Z,94378.31
2023-01-15T04:57:09.459Z,94369.00
2023-01-15T04:59:37.119Z,94372.66
2023-01-15T05:02:06.818Z,94363.72
2023-01-15T05:04:35.974Z,94363.16
2023-01-15T05:07:05.720Z,94360.38
2023-01-15T05:09:34.820Z,94359.78
2023-01-15T05:12:03.513Z,94362.84
2023-01-15T05:14:32.549Z,94356.41
2023-01-15T05:17:00.636Z,94350.78
2023-01-15T05:19:28.341Z,94351.81
2023-01-15T05:21:56.253Z,94362.06
2023-01-15T05:24:24.068Z,94348.09
2023-01-15T05:26:52.474Z,94348.16
2023-01-15T05:29:20.211Z,94343.53
2023-01-15T05:31:49.874Z,94329.84
2023-01-15T05:34:17.562Z,94338.53
2023-01-15T05:36:45.576Z,94329.97
2023-01-15T05:39:14.539Z,94334.16
2023-01-15T05:41:51.256Z,94328.75
2023-01-15T05:44:22.576Z,94339.50
2023-01-15T05:46:53.260Z,94342.34
2023-01-15T05:49:22.958Z,94354.09
2023-01-15T05:51:51.579Z,94355.72
2023-01-15T05:54:23.077Z,94350.28
2023-01-15T05:56:51.343Z,94347.63
2023-01-15T05:59:21.198Z,94347.06
2023-01-15T06:01:49.215Z,94364.22
2023-01-15T06:04:21.395Z,94354.38
2023-01-15T06:06:49.802Z,94358.56
2023-01-15T06:09:17.907Z,94345.16
2023-01-15T06:11:45.664Z,94357.88
2023-01-15T06:14:14.207Z,94352.81
2023-01-15T06:16:42.340Z,94343.81
2023-01-15T06:19:11.299Z,94339.28
2023-01-15T06:21:40.891Z,94355.53
2023-01-15T06:24:09.773Z,94355.91
2023-01-15T06:26:39.318Z,94356.94
2023-01-15T06:29:07.809Z,94351.19
2023-01-15T06:31:35.540Z,94362.28
2023-01-15T06:34:03.959Z,94357.03
2023-01-15T06:36:31.660Z,94359.09
2023-01-15T06:39:03.073Z,94356.94
2023-01-15T06:41:49.443Z,94355.28
2023-01-15T06:44:37.466Z,94364.28
2023-01-15T06:47:24.532Z,94357.72
2023-01-15T06:49:55.834Z,94351.19
2023-01-15T06:52:24.753Z,94339.44
2023-01-15T06:54:54.140Z,94344.72
2023-01-15T06:57:22.361Z,94336.22
2023-01-15T06:59:50.931Z,94329.28
2023-01-15T07:02:18.887Z,94338.25
2023-01-15T07:04:46.693Z,94351.59
2023-01-15T07:07:14.742Z,94342.03
2023-01-15T07:09:42.796Z,94360.53
2023-01-15T07:12:12.222Z,94347.44
2023-01-15T07:14:40.675Z,94369.38
2023-01-15T07:17:08.393Z,94355.81
2023-01-15T07:19:36.463Z,94353.16
2023-01-15T07:22:04.800Z,94350.28
2023-01-15T07:24:33.154Z,94345.41
2023-01-15T07:27:02.787Z,94348.69
2023-01-15T07:29:32.381Z,94338.34
2023-01-15T07:32:00.246Z,94359.19
2023-01-15T07:34:28.164Z,94347.38
2023-01-15T07:36:55.834Z,94336.81
2023-01-15T07:39:23.679Z,94352.16
2023-01-15T07:42:05.287Z,94339.19
2023-01-15T07:44:54.518Z,94342.50
2023-01-15T07:47:41.776Z,94327.19
2023-01-15T07:50:12.833Z,94326.47
2023-01-15T07:52:40.493Z,94309.19
2023-01-15T07:55:10.148Z,94325.16
2023-01-15T07:57:38.077Z,94335.41
2023-01-15T08:00:09.934Z,94323.84
2023-01-15T08:02:41.416Z,94319.91
2023-01-15T08:05:11.862Z,94320.94
2023-01-15T08:07:40.967Z,94316.97
2023-01-15T08:10:11.022Z,94320.81
2023-01-15T08:12:57.492Z,94333.25
2023-01-15T08:15:28.277Z,94331.22
2023-01-15T08:17:55.946Z,94317.44
2023-01-15T08:20:26.057Z,94324.03
2023-01-15T08:22:54.326Z,94320.31
2023-01-15T08:25:26.488Z,94319.50
2023-01-15T08:27:54.900Z,94313.75
2023-01-15T08:30:24.991Z,94331.56
2023-01-15T08:32:54.217Z,94328.88
2023-01-15T08:35:22.212Z,94311.13
2023-01-15T08:37:49.943Z,94315.22
2023-01-15T08:40:18.151Z,94310.25
2023-01-15T08:42:45.829Z,94320.28
2023-01-15T08:45:14.172Z,94305.22
2023-01-15T08:47:42.409Z,94301.09
2023-01-15T08:50:13.030Z,94300.88
2023-01-15T08:52:41.331Z,94297.50
2023-01-15T08:55:10.102Z,94297.88
2023-01-15T08:57:38.574Z,94305.31
2023-01-15T09:00:08.027Z,94295.19
2023-01-15T09:02:35.688Z,94294.72
2023-01-15T09:05:04.146Z,94297.56
2023-01-15T09:07:35.218Z,94310.47
2023-01-15T09:10:04.576Z,94309.91
2023-01-15T09:12:32.676Z,94314.75
2023-01-15T09:15:03.279Z,94313.38
2023-01-15T09:17:32.823Z,94317.38
2023-01-15T09:20:00.635Z,94331.94
2023-01-15T09:22:30.736Z,94345.75
2023-01-15T09:25:00.200Z,94333.63
2023-01-15T09:27:28.006Z,94390.47
2023-01-15T09:29:56.617Z,94408.09
2023-01-15T09:32:24.311Z,94434.03
2023-01-15T09:34:52.292Z,94441.06
2023-01-15T09:37:20.223Z,94440.00
2023-01-15T09:39:47.918Z,94462.59
2023-01-15T09:42:30.471Z,94501.16
2023-01-15T09:45:13.825Z,94499.44
2023-01-15T09:47:51.607Z,94518.59
2023-01-15T09:50:48.566Z,94560.66
2023-01-15T09:53:38.604Z,94559.34
2023-01-15T09:56:06.783Z,94553.59
2023-01-15T09:58:38.239Z,94563.13
2023-01-15T10:01:07.432Z,94565.09
2023-01-15T10:03:43.266Z,94564.78
2023-01-15T10:06:16.363Z,94574.00
2023-01-15T10:08:46.621Z,94569.19
2023-01-15T10:11:48.493Z,94567.56
2023-01-15T10:14:30.603Z,94563.06
2023-01-15T10:16:59.320Z,94559.03
2023-01-15T10:19:37.199Z,94569.88
2023-01-15T10:22:22.896Z,94568.28
2023-01-15T10:24:57.628Z,94558.91
2023-01-15T10:27:28.688Z,94563.25
2023-01-15T10:30:04.987Z,94578.97
2023-01-15T10:33:00.617Z,94584.19
2023-01-15T10:35:38.848Z,94598.38
2023-01-15T10:38:15.343Z,94601.28
2023-01-15T10:41:05.890Z,94609.94
2023-01-15T10:43:45.575Z,94595.78
2023-01-15T10:46:18.157Z,94593.44
2023-01-15T10:48:49.735Z,94593.78
2023-01-15T10:51:21.351Z,94594.41
2023-01-15T10:53:53.017Z,94599.34
2023-01-15T10:56:30.923Z,94605.50
2023-01-15T10:59:08.537Z,94615.31
2023-01-15T11:01:38.594Z,94610.53
2023-01-15T11:04:06.801Z,94633.34
2023-01-15T11:06:35.108Z,94640.78
2023-01-15T11:09:11.760Z,94633.72
2023-01-15T11:12:02.652Z,94651.91
2023-01-15T11:14:53.216Z,94651.72
2023-01-15T11:17:40.621Z,94658.19
2023-01-15T11:20:17.969Z,94668.63
2023-01-15T11:22:46.156Z,94673.94
2023-01-15T11:25:15.397Z,94672.91
2023-01-15T11:27:43.641Z,94659.69
2023-01-15T11:30:27.791Z,94666.53
2023-01-15T11:32:59.085Z,94670.47
2023-01-15T11:35:27.796Z,94663.44
2023-01-15T11:38:12.161Z,94663.63
2023-01-15T11:40:39.909Z,94670.09
2023-01-15T11:43:39.274Z,94690.53
2023-01-15T11:46:25.059Z,94715.81
2023-01-15T11:49:12.291Z,94724.66
2023-01-15T11:51:43.589Z,94742.44
2023-01-15T11:54:14.080Z,94755.16
2023-01-15T11:56:43.704Z,94756.84
2023-01-15T11:59:14.900Z,94770.38
2023-01-15T12:01:54.623Z,94768.94
2023-01-15T12:04:32.484Z,94784.50
2023-01-15T12:07:00.733Z,94790.31
2023-01-15T12:09:37.318Z,94772.06
2023-01-15T12:12:16.633Z,94774.44
2023-01-15T12:15:10.824Z,94779.38
2023-01-15T12:17:54.735Z,94772.81
2023-01-15T12:20:28.783Z,94765.81
2023-01-15T12:23:13.098Z,94764.56
2023-01-15T12:25:54.186Z,94770.28
2023-01-15T12:28:28.304Z,94777.84
2023-01-15T12:31:02.569Z,94774.31
2023-01-15T12:33:41.727Z,94768.34
2023-01-15T12:36:17.633Z,94778.22
2023-01-15T12:38:51.163Z,94788.22
2023-01-15T12:41:24.097Z,94794.13
2023-01-15T12:44:15.426Z,94802.78
2023-01-15T12:46:46.515Z,94823.16
2023-01-15T12:49:28.968Z,94833.44
2023-01-15T12:52:05.461Z,94849.00
2023-01-15T12:54:40.125Z,94817.78
2023-01-15T12:57:15.368Z,94838.09
2023-01-15T12:59:49.710Z,94836.31
2023-01-15T13:02:22.903Z,94833.81
2023-01-15T13:04:54.830Z,94850.66
2023-01-15T13:07:29.942Z,94854.53
2023-01-15T13:10:07.589Z,94860.56
2023-01-15T13:12:35.420Z,94865.63
2023-01-15T13:15:05.268Z,94859.75
2023-01-15T13:17:44.598Z,94875.72
2023-01-15T13:20:29.265Z,94881.16
2023-01-15T13:23:09.593Z,94890.75
2023-01-15T13:26:09.288Z,94883.19
2023-01-15T13:28:51.547Z,94889.63
2023-01-15T13:31:38.278Z,94904.44
2023-01-15T13:34:14.450Z,94881.09
2023-01-15T13:36:47.051Z,94890.31
2023-01-15T13:39:20.955Z,94883.97
2023-01-15T13:42:09.435Z,94893.69
2023-01-15T13:44:40.135Z,94901.06
2023-01-15T13:47:10.319Z,94903.88
2023-01-15T13:49:41.326Z,94929.31
2023-01-15T13:52:22.725Z,94928.84
2023-01-15T13:54:53.352Z,94931.81
2023-01-15T13:57:32.755Z,94937.19
2023-01-15T14:00:00.972Z,94934.59
2023-01-15T14:02:31.049Z,94938.31
2023-01-15T14:04:59.605Z,94958.38
2023-01-15T14:07:36.392Z,94951.81
2023-01-15T14:10:25.337Z,94955.25
2023-01-15T14:13:07.799Z,94964.78
2023-01-15T14:15:47.846Z,94948.63
2023-01-15T14:18:27.556Z,94950.56
2023-01-15T14:21:01.644Z,94947.81
2023-01-15T14:23:52.900Z,94959.50
2023-01-15T14:26:32.439Z,94967.47
2023-01-15T14:29:12.928Z,94966.69
2023-01-15T14:31:52.551Z,94954.13
2023-01-15T14:34:24.045Z,94968.97
2023-01-15T14:36:57.323Z,94939.00
2023-01-15T14:39:30.072Z,94921.13
2023-01-15T14:42:22.661Z,94955.69
2023-01-15T14:44:59.197Z,94972.53
2023-01-15T14:47:35.496Z,94984.06
2023-01-15T14:50:20.556Z,94985.97
2023-01-15T14:52:48.807Z,94987.19
2023-01-15T14:55:18.760Z,94994.97
2023-01-15T14:57:56.983Z,94985.56
2023-01-15T15:00:31.336Z,94985.97
2023-01-15T15:03:02.356Z,94985.06
2023-01-15T15:05:34.837Z,94987.75
2023-01-15T15:08:04.113Z,94983.34
2023-01-15T15:10:34.728Z,94990.03
2023-01-15T15:13:14.326Z,94996.25
2023-01-15T15:15:49.143Z,94995.28
2023-01-15T15:18:28.910Z,94996.22
2023-01-15T15:21:05.446Z,95010.09
2023-01-15T15:23:38.809Z,95015.50
2023-01-15T15:26:20.626Z,95004.25
2023-01-15T15:28:58.743Z,95015.50
2023-01-15T15:31:27.902Z,95015.16
2023-01-15T15:33:58.056Z,95007.34
2023-01-15T15:36:28.906Z,94996.41
2023-01-15T15:38:59.049Z,94994.28
2023-01-15T15:41:49.037Z,95006.69
2023-01-15T15:44:41.445Z,94993.34
2023-01-15T15:47:41.904Z,94990.03
2023-01-15T15:50:21.400Z,94973.41
2023-01-15T15:52:50.136Z,94984.81
2023-01-15T15:55:19.273Z,94987.78
2023-01-15T15:57:51.265Z,94983.22
2023-01-15T16:00:24.681Z,94984.66
2023-01-15T16:02:53.245Z,94979.59
2023-01-15T16:05:25.410Z,94977.97
2023-01-15T16:07:53.909Z,94991.38
2023-01-15T16:10:26.555Z,94983.84
2023-01-15T16:12:55.784Z,94977.13
2023-01-15T16:15:28.797Z,94995.13
2023-01-15T16:17:58.202Z,94983.66
2023-01-15T16:20:26.419Z,94990.38
2023-01-15T16:22:59.512Z,94995.94
2023-01-15T16:25:30.920Z,94993.47
2023-01-15T16:27:59.040Z,94991.03
2023-01-15T16:30:29.372Z,95001.28
2023-01-15T16:33:02.209Z,94987.41
2023-01-15T16:35:32.508Z,94983.13
2023-01-15T16:38:02.561Z,94983.47
2023-01-15T16:40:33.800Z,94987.69
2023-01-15T16:43:07.283Z,94973.28
2023-01-15T16:45:38.119Z,94989.91
2023-01-15T16:48:27.439Z,94974.19
2023-01-15T16:50:58.602Z,94989.91
2023-01-15T16:53:38.225Z,94999.25
2023-01-15T16:56:08.393Z,94994.03
2023-01-15T16:58:38.913Z,94989.44
2023-01-15T17:01:35.626Z,94987.88
2023-01-15T17:04:04.635Z,94986.66
2023-01-15T17:06:33.812Z,94985.97
2023-01-15T17:09:01.609Z,94987.53
2023-01-15T17:11:33.519Z,94977.44
2023-01-15T17:14:12.395Z,94970.31
2023-01-15T17:16:41.799Z,94979.69
2023-01-15T17:19:12.010Z,94983.16
2023-01-15T17:21:40.551Z,94979.13
2023-01-15T17:24:09.940Z,94972.97
2023-01-15T17:26:39.570Z,94971.63
2023-01-15T17:29:07.264Z,94980.47
2023-01-15T17:31:36.599Z,94974.88
2023-01-15T17:34:05.637Z,94978.53
2023-01-15T17:36:34.538Z,94982.09
2023-01-15T17:39:02.293Z,94969.41
2023-01-15T17:41:30.333Z,94983.44
2023-01-15T17:43:58.044Z,94973.78
2023-01-15T17:46:25.840Z,94978.75
2023-01-15T17:48:53.915Z,94983.63
2023-01-15T17:51:22.913Z,94986.69
2023-01-15T17:53:50.949Z,94993.44
2023-01-15T17:56:36.171Z,95003.66
2023-01-15T17:59:21.502Z,94997.13
2023-01-15T18:02:06.897Z,95003.50
2023-01-15T18:04:57.374Z,95002.47
2023-01-15T18:07:29.581Z,94996.97
2023-01-15T18:09:57.932Z,95000.41
2023-01-15T18:12:25.936Z,94998.84
2023-01-15T18:14:53.834Z,95002.34
2023-01-15T18:17:21.995Z,94999.50
2023-01-15T18:19:50.095Z,95000.41
2023-01-15T18:22:18.972Z,94997.56
2023-01-15T18:24:47.999Z,94999.19
2023-01-15T18:27:15.667Z,94994.97
2023-01-15T18:29:44.278Z,95005.94
2023-01-15T18:32:11.982Z,95002.91
2023-01-15T18:34:40.437Z,95002.81
2023-01-15T18:37:08.146Z,94999.19
2023-01-15T18:39:37.117Z,95003.44
2023-01-15T18:42:24.296Z,94995.63
2023-01-15T18:45:09.602Z,95003.88
2023-01-15T18:47:38.036Z,95001.66
2023-01-15T18:50:07.307Z,95000.19
2023-01-15T18:52:51.145Z,94994.28
2023-01-15T18:55:20.350Z,94985.00
2023-01-15T18:57:49.405Z,94994.66
2023-01-15T19:00:18.034Z,94994.97
2023-01-15T19:02:46.168Z,94984.16
2023-01-15T19:05:15.254Z,94992.72
2023-01-15T19:07:43.508Z,94983.06
2023-01-15T19:10:13.606Z,94979.69
2023-01-15T19:12:41.400Z,94973.81
2023-01-15T19:15:31.774Z,94978.38
2023-01-15T19:18:17.610Z,94974.44
2023-01-15T19:20:45.722Z,94976.06
2023-01-15T19:23:14.354Z,94959.13
2023-01-15T19:25:44.473Z,94966.56
2023-01-15T19:28:16.157Z,94954.19
2023-01-15T19:31:07.525Z,94951.69
2023-01-15T19:33:35.985Z,94936.56
2023-01-15T19:36:04.916Z,94942.00
2023-01-15T19:38:34.077Z,94943.00
2023-01-15T19:44:12.607Z,94945.19
2023-01-15T19:46:59.013Z,94933.19
2023-01-15T19:49:45.058Z,94936.56
2023-01-15T19:52:30.217Z,94926.31
2023-01-15T19:54:59.971Z,94917.19
2023-01-15T19:57:27.624Z,94914.16
2023-01-15T19:59:56.576Z,94916.28
2023-01-15T20:02:24.337Z,94922.34
2023-01-15T20:04:52.674Z,94915.50
2023-01-15T20:07:20.330Z,94909.59
2023-01-15T20:09:48.912Z,94909.91
2023-01-15T20:12:34.394Z,94896.88
2023-01-15T20:15:03.732Z,94909.84
2023-01-15T20:17:31.751Z,94908.81
2023-01-15T20:20:00.160Z,94905.31
2023-01-15T20:22:30.195Z,94897.66
2023-01-15T20:24:57.872Z,94890.00
2023-01-15T20:27:25.688Z,94882.50
2023-01-15T20:29:53.753Z,94884.47
2023-01-15T20:32:23.277Z,94888.88
2023-01-15T20:34:51.238Z,94880.66
2023-01-15T20:37:19.038Z,94873.66
2023-01-15T20:39:47.082Z,94876.38
2023-01-15T20:42:32.207Z,94872.19
2023-01-15T20:45:03.205Z,94880.50
2023-01-15T20:47:50.135Z,94879.47
2023-01-15T20:50:19.152Z,94874.31
2023-01-15T20:52:48.775Z,94865.78
2023-01-15T20:55:18.200Z,94864.97
2023-01-15T20:57:46.379Z,94875.53
2023-01-15T21:00:17.671Z,94876.81
2023-01-15T21:02:47.288Z,94871.28
2023-01-15T21:05:15.895Z,94871.13
2023-01-15T21:07:43.924Z,94868.91
2023-01-15T21:10:15.232Z,94869.88
2023-01-15T21:12:43.289Z,94856.59
2023-01-15T21:15:11.467Z,94852.94
2023-01-15T21:17:40.044Z,94854.91
2023-01-15T21:20:11.417Z,94846.09
2023-01-15T21:22:39.062Z,94850.00
2023-01-15T21:25:09.926Z,94835.72
2023-01-15T21:27:38.590Z,94837.34
2023-01-15T21:30:08.460Z,94834.09
2023-01-15T21:32:36.165Z,94832.16
2023-01-15T21:35:04.113Z,94829.09
2023-01-15T21:37:33.072Z,94823.69
2023-01-15T21:40:01.053Z,94816.88
2023-01-15T21:42:46.476Z,94817.84
2023-01-15T21:45:14.120Z,94823.25
2023-01-15T21:47:41.776Z,94819.03
2023-01-15T21:50:10.854Z,94811.91
2023-01-15T21:52:39.905Z,94807.50
2023-01-15T21:55:09.147Z,94803.59
2023-01-15T21:57:36.779Z,94805.75
2023-01-15T22:00:06.063Z,94815.50
2023-01-15T22:02:36.126Z,94809.81
2023-01-15T22:05:04.367Z,94799.38
2023-01-15T22:07:32.121Z,94798.72
2023-01-15T22:10:01.634Z,94798.72
2023-01-15T22:12:29.306Z,94793.50
2023-01-15T22:14:57.513Z,94787.00
2023-01-15T22:17:25.563Z,94776.38
2023-01-15T22:19:53.334Z,94772.25
2023-01-15T22:22:21.680Z,94757.28
2023-01-15T22:24:49.363Z,94753.50
2023-01-15T22:27:20.376Z,94749.91
2023-01-15T22:29:47.978Z,94732.16
2023-01-15T22:32:16.156Z,94725.28
2023-01-15T22:34:44.233Z,94720.25
2023-01-15T22:37:14.590Z,94716.81
2023-01-15T22:39:42.231Z,94709.41
2023-01-15T22:42:28.434Z,94709.59
2023-01-15T22:44:59.760Z,94706.28
2023-01-15T22:47:28.579Z,94699.81
2023-01-15T22:49:56.265Z,94703.28
2023-01-15T22:52:25.766Z,94700.31
2023-01-15T22:54:54.324Z,94700.00
2023-01-15T22:57:22.826Z,94701.16
2023-01-15T22:59:51.294Z,94688.94
2023-01-15T23:02:42.615Z,94690.22
2023-01-15T23:05:11.350Z,94686.50
2023-01-15T23:07:41.391Z,94684.06
2023-01-15T23:10:11.994Z,94680.63
2023-01-15T23:12:40.311Z,94674.59
2023-01-15T23:15:09.785Z,94666.47
2023-01-15T23:17:39.090Z,94663.84
2023-01-15T23:20:08.080Z,94653.41
2023-01-15T23:22:35.711Z,94651.16
2023-01-15T23:25:03.380Z,94650.00
2023-01-15T23:27:31.395Z,94644.94
2023-01-15T23:29:59.017Z,94639.59
2023-01-15T23:32:26.661Z,94628.19
2023-01-15T23:34:55.629Z,94632.06
2023-01-15T23:37:23.640Z,94618.41
2023-01-15T23:39:51.291Z,94621.16
2023-01-15T23:42:36.781Z,94615.97
2023-01-15T23:45:21.947Z,94607.34
2023-01-15T23:47:49.984Z,94605.53
2023-01-15T23:50:19.140Z,94609.78
2023-01-15T23:52:47.239Z,94605.84
2023-01-15T23:55:14.889Z,94604.72
2023-01-15T23:57:42.876Z,94605.72
